sensor_id;sensor_type;location;lat;lon;timestamp;P1;durP1;ratioP1;P2;durP2;ratioP2
6223;SDS011;3145;42.726;23.342;2023-04-24T00:01:02;8.67;;;7.73;;
6223;SDS011;3145;42.726;23.342;2023-04-24T00:03:32;11.17;;;8.50;;
6223;SDS011;3145;42.726;23.342;2023-04-24T00:06:01;9.60;;;8.80;;
6223;SDS011;3145;42.726;23.342;2023-04-24T00:08:27;9.20;;;8.30;;
6223;SDS011;3145;42.726;23.342;2023-04-24T00:10:54;9.10;;;8.17;;
6223;SDS011;3145;42.726;23.342;2023-04-24T00:13:21;9.20;;;8.40;;
6223;SDS011;3145;42.726;23.342;2023-04-24T00:15:48;9.23;;;8.40;;
6223;SDS011;3145;42.726;23.342;2023-04-24T00:18:14;10.57;;;9.57;;
6223;SDS011;3145;42.726;23.342;2023-04-24T00:20:41;9.63;;;8.77;;
6223;SDS011;3145;42.726;23.342;2023-04-24T00:23:10;10.37;;;9.43;;
6223;SDS011;3145;42.726;23.342;2023-04-24T00:25:36;10.07;;;8.97;;
6223;SDS011;3145;42.726;23.342;2023-04-24T00:28:03;9.13;;;8.33;;
6223;SDS011;3145;42.726;23.342;2023-04-24T00:30:30;9.60;;;8.83;;
6223;SDS011;3145;42.726;23.342;2023-04-24T00:32:57;9.13;;;8.23;;
6223;SDS011;3145;42.726;23.342;2023-04-24T00:35:23;9.37;;;8.50;;
6223;SDS011;3145;42.726;23.342;2023-04-24T00:37:50;9.20;;;8.47;;
6223;SDS011;3145;42.726;23.342;2023-04-24T00:40:18;9.73;;;8.00;;
6223;SDS011;3145;42.726;23.342;2023-04-24T00:42:45;8.80;;;7.97;;
6223;SDS011;3145;42.726;23.342;2023-04-24T00:45:12;8.53;;;7.93;;
6223;SDS011;3145;42.726;23.342;2023-04-24T00:47:39;10.10;;;9.20;;
6223;SDS011;3145;42.726;23.342;2023-04-24T00:50:08;10.53;;;9.43;;
6223;SDS011;3145;42.726;23.342;2023-04-24T00:52:36;9.37;;;8.57;;
6223;SDS011;3145;42.726;23.342;2023-04-24T00:55:06;11.70;;;8.77;;
6223;SDS011;3145;42.726;23.342;2023-04-24T00:57:34;9.30;;;8.43;;
6223;SDS011;3145;42.726;23.342;2023-04-24T01:00:01;9.83;;;8.90;;
6223;SDS011;3145;42.726;23.342;2023-04-24T01:02:30;9.50;;;8.60;;
6223;SDS011;3145;42.726;23.342;2023-04-24T01:04:59;10.63;;;9.40;;
6223;SDS011;3145;42.726;23.342;2023-04-24T01:07:26;11.63;;;9.00;;
6223;SDS011;3145;42.726;23.342;2023-04-24T01:09:53;9.30;;;8.50;;
6223;SDS011;3145;42.726;23.342;2023-04-24T01:12:20;9.80;;;7.90;;
6223;SDS011;3145;42.726;23.342;2023-04-24T01:14:48;10.30;;;9.23;;
6223;SDS011;3145;42.726;23.342;2023-04-24T01:17:15;9.67;;;8.57;;
6223;SDS011;3145;42.726;23.342;2023-04-24T01:19:42;9.13;;;8.33;;
6223;SDS011;3145;42.726;23.342;2023-04-24T01:22:11;9.63;;;8.90;;
6223;SDS011;3145;42.726;23.342;2023-04-24T01:24:39;10.50;;;9.47;;
6223;SDS011;3145;42.726;23.342;2023-04-24T01:27:07;10.57;;;9.63;;
6223;SDS011;3145;42.726;23.342;2023-04-24T01:29:35;15.83;;;9.63;;
6223;SDS011;3145;42.726;23.342;2023-04-24T01:32:02;13.17;;;10.20;;
6223;SDS011;3145;42.726;23.342;2023-04-24T01:34:30;11.67;;;10.53;;
6223;SDS011;3145;42.726;23.342;2023-04-24T01:36:56;11.27;;;10.17;;
6223;SDS011;3145;42.726;23.342;2023-04-24T01:39:25;11.40;;;10.40;;
6223;SDS011;3145;42.726;23.342;2023-04-24T01:41:53;11.50;;;10.40;;
6223;SDS011;3145;42.726;23.342;2023-04-24T01:44:20;11.27;;;10.07;;
6223;SDS011;3145;42.726;23.342;2023-04-24T01:46:47;12.80;;;11.03;;
6223;SDS011;3145;42.726;23.342;2023-04-24T01:49:14;11.50;;;10.40;;
6223;SDS011;3145;42.726;23.342;2023-04-24T01:51:41;12.13;;;10.70;;
6223;SDS011;3145;42.726;23.342;2023-04-24T01:54:07;12.00;;;10.90;;
6223;SDS011;3145;42.726;23.342;2023-04-24T01:56:35;15.97;;;11.10;;
6223;SDS011;3145;42.726;23.342;2023-04-24T01:59:06;13.10;;;11.60;;
6223;SDS011;3145;42.726;23.342;2023-04-24T02:01:35;15.20;;;11.13;;
6223;SDS011;3145;42.726;23.342;2023-04-24T02:04:02;18.87;;;12.67;;
6223;SDS011;3145;42.726;23.342;2023-04-24T02:06:29;14.43;;;11.80;;
6223;SDS011;3145;42.726;23.342;2023-04-24T02:08:57;12.00;;;10.80;;
6223;SDS011;3145;42.726;23.342;2023-04-24T02:11:24;13.17;;;11.97;;
6223;SDS011;3145;42.726;23.342;2023-04-24T02:13:52;13.97;;;12.67;;
6223;SDS011;3145;42.726;23.342;2023-04-24T02:16:19;14.63;;;11.70;;
6223;SDS011;3145;42.726;23.342;2023-04-24T02:18:46;16.77;;;11.13;;
6223;SDS011;3145;42.726;23.342;2023-04-24T02:21:13;16.10;;;14.40;;
6223;SDS011;3145;42.726;23.342;2023-04-24T02:23:39;17.97;;;14.87;;
6223;SDS011;3145;42.726;23.342;2023-04-24T02:26:06;15.30;;;13.67;;
6223;SDS011;3145;42.726;23.342;2023-04-24T02:28:33;12.67;;;11.47;;
6223;SDS011;3145;42.726;23.342;2023-04-24T02:31:01;15.10;;;11.40;;
6223;SDS011;3145;42.726;23.342;2023-04-24T02:33:28;12.90;;;11.60;;
6223;SDS011;3145;42.726;23.342;2023-04-24T02:35:55;11.90;;;10.77;;
6223;SDS011;3145;42.726;23.342;2023-04-24T02:38:21;15.50;;;12.77;;
6223;SDS011;3145;42.726;23.342;2023-04-24T02:40:48;16.23;;;13.90;;
6223;SDS011;3145;42.726;23.342;2023-04-24T02:43:15;15.43;;;13.83;;
6223;SDS011;3145;42.726;23.342;2023-04-24T02:45:41;16.03;;;14.37;;
6223;SDS011;3145;42.726;23.342;2023-04-24T02:48:09;19.40;;;14.63;;
6223;SDS011;3145;42.726;23.342;2023-04-24T02:50:36;15.27;;;13.77;;
6223;SDS011;3145;42.726;23.342;2023-04-24T02:53:03;15.97;;;13.77;;
6223;SDS011;3145;42.726;23.342;2023-04-24T02:55:30;13.57;;;12.37;;
6223;SDS011;3145;42.726;23.342;2023-04-24T02:57:56;14.70;;;13.30;;
6223;SDS011;3145;42.726;23.342;2023-04-24T03:00:23;15.07;;;12.77;;
6223;SDS011;3145;42.726;23.342;2023-04-24T03:02:50;14.23;;;12.83;;
6223;SDS011;3145;42.726;23.342;2023-04-24T03:05:18;14.27;;;12.87;;
6223;SDS011;3145;42.726;23.342;2023-04-24T03:07:45;18.67;;;12.80;;
6223;SDS011;3145;42.726;23.342;2023-04-24T03:10:11;14.37;;;12.43;;
6223;SDS011;3145;42.726;23.342;2023-04-24T03:12:38;13.40;;;12.00;;
6223;SDS011;3145;42.726;23.342;2023-04-24T03:15:05;13.47;;;12.17;;
6223;SDS011;3145;42.726;23.342;2023-04-24T03:17:33;14.47;;;12.80;;
6223;SDS011;3145;42.726;23.342;2023-04-24T03:20:00;13.80;;;12.37;;
6223;SDS011;3145;42.726;23.342;2023-04-24T03:22:28;14.53;;;12.13;;
6223;SDS011;3145;42.726;23.342;2023-04-24T03:24:55;14.00;;;12.47;;
6223;SDS011;3145;42.726;23.342;2023-04-24T03:27:21;13.77;;;12.57;;
6223;SDS011;3145;42.726;23.342;2023-04-24T03:29:48;15.90;;;12.57;;
6223;SDS011;3145;42.726;23.342;2023-04-24T03:32:18;12.73;;;11.60;;
6223;SDS011;3145;42.726;23.342;2023-04-24T03:34:45;13.87;;;12.47;;
6223;SDS011;3145;42.726;23.342;2023-04-24T03:37:12;17.17;;;11.40;;
6223;SDS011;3145;42.726;23.342;2023-04-24T03:39:40;13.50;;;12.20;;
6223;SDS011;3145;42.726;23.342;2023-04-24T03:42:06;14.37;;;12.53;;
6223;SDS011;3145;42.726;23.342;2023-04-24T03:44:34;14.40;;;12.50;;
6223;SDS011;3145;42.726;23.342;2023-04-24T03:47:00;15.83;;;12.30;;
6223;SDS011;3145;42.726;23.342;2023-04-24T03:49:27;14.53;;;12.93;;
6223;SDS011;3145;42.726;23.342;2023-04-24T03:51:54;16.73;;;12.03;;
6223;SDS011;3145;42.726;23.342;2023-04-24T03:54:20;15.43;;;12.83;;
6223;SDS011;3145;42.726;23.342;2023-04-24T03:56:49;13.77;;;12.27;;
6223;SDS011;3145;42.726;23.342;2023-04-24T03:59:16;14.10;;;12.70;;
6223;SDS011;3145;42.726;23.342;2023-04-24T04:01:42;14.03;;;11.47;;
6223;SDS011;3145;42.726;23.342;2023-04-24T04:04:10;13.47;;;12.07;;
6223;SDS011;3145;42.726;23.342;2023-04-24T04:06:37;13.27;;;11.97;;
6223;SDS011;3145;42.726;23.342;2023-04-24T04:09:03;21.60;;;14.20;;
6223;SDS011;3145;42.726;23.342;2023-04-24T04:11:30;15.43;;;13.83;;
6223;SDS011;3145;42.726;23.342;2023-04-24T04:13:58;16.60;;;13.43;;
6223;SDS011;3145;42.726;23.342;2023-04-24T04:16:30;20.00;;;13.63;;
6223;SDS011;3145;42.726;23.342;2023-04-24T04:18:57;32.60;;;23.87;;
6223;SDS011;3145;42.726;23.342;2023-04-24T04:21:24;45.73;;;26.27;;
6223;SDS011;3145;42.726;23.342;2023-04-24T04:23:51;39.47;;;24.70;;
6223;SDS011;3145;42.726;23.342;2023-04-24T04:26:18;36.90;;;22.40;;
6223;SDS011;3145;42.726;23.342;2023-04-24T04:28:46;27.77;;;20.10;;
6223;SDS011;3145;42.726;23.342;2023-04-24T04:31:15;27.63;;;18.27;;
6223;SDS011;3145;42.726;23.342;2023-04-24T04:33:42;20.47;;;14.10;;
6223;SDS011;3145;42.726;23.342;2023-04-24T04:36:08;22.87;;;14.23;;
6223;SDS011;3145;42.726;23.342;2023-04-24T04:38:35;17.30;;;13.43;;
6223;SDS011;3145;42.726;23.342;2023-04-24T04:41:02;18.73;;;13.97;;
6223;SDS011;3145;42.726;23.342;2023-04-24T04:43:30;14.77;;;13.30;;
6223;SDS011;3145;42.726;23.342;2023-04-24T04:45:57;17.03;;;13.40;;
6223;SDS011;3145;42.726;23.342;2023-04-24T04:48:26;17.47;;;13.67;;
6223;SDS011;3145;42.726;23.342;2023-04-24T04:50:53;24.27;;;13.77;;
6223;SDS011;3145;42.726;23.342;2023-04-24T04:53:20;17.93;;;13.17;;
6223;SDS011;3145;42.726;23.342;2023-04-24T04:55:47;15.37;;;12.93;;
6223;SDS011;3145;42.726;23.342;2023-04-24T04:58:13;18.33;;;14.13;;
6223;SDS011;3145;42.726;23.342;2023-04-24T05:00:40;20.23;;;14.77;;
6223;SDS011;3145;42.726;23.342;2023-04-24T05:03:07;22.40;;;15.13;;
6223;SDS011;3145;42.726;23.342;2023-04-24T05:05:35;25.07;;;15.03;;
6223;SDS011;3145;42.726;23.342;2023-04-24T05:08:05;19.53;;;13.80;;
6223;SDS011;3145;42.726;23.342;2023-04-24T05:10:32;15.87;;;12.30;;
6223;SDS011;3145;42.726;23.342;2023-04-24T05:12:59;17.50;;;12.40;;
6223;SDS011;3145;42.726;23.342;2023-04-24T05:15:26;16.07;;;12.50;;
6223;SDS011;3145;42.726;23.342;2023-04-24T05:17:52;14.97;;;13.37;;
6223;SDS011;3145;42.726;23.342;2023-04-24T05:20:19;15.03;;;12.73;;
6223;SDS011;3145;42.726;23.342;2023-04-24T05:22:47;16.77;;;12.23;;
6223;SDS011;3145;42.726;23.342;2023-04-24T05:25:14;16.13;;;11.63;;
6223;SDS011;3145;42.726;23.342;2023-04-24T05:27:40;16.17;;;11.70;;
6223;SDS011;3145;42.726;23.342;2023-04-24T05:30:08;16.73;;;12.70;;
6223;SDS011;3145;42.726;23.342;2023-04-24T05:32:35;12.77;;;11.40;;
6223;SDS011;3145;42.726;23.342;2023-04-24T05:35:02;15.30;;;11.57;;
6223;SDS011;3145;42.726;23.342;2023-04-24T05:37:29;11.63;;;10.43;;
6223;SDS011;3145;42.726;23.342;2023-04-24T05:39:57;13.33;;;10.20;;
6223;SDS011;3145;42.726;23.342;2023-04-24T05:42:24;14.90;;;11.30;;
6223;SDS011;3145;42.726;23.342;2023-04-24T05:44:51;13.30;;;10.67;;
6223;SDS011;3145;42.726;23.342;2023-04-24T05:47:19;10.47;;;9.63;;
6223;SDS011;3145;42.726;23.342;2023-04-24T05:49:46;10.27;;;9.37;;
6223;SDS011;3145;42.726;23.342;2023-04-24T05:52:13;12.83;;;9.00;;
6223;SDS011;3145;42.726;23.342;2023-04-24T05:54:40;10.73;;;9.40;;
6223;SDS011;3145;42.726;23.342;2023-04-24T05:57:08;17.97;;;10.50;;
6223;SDS011;3145;42.726;23.342;2023-04-24T05:59:36;15.13;;;9.50;;
6223;SDS011;3145;42.726;23.342;2023-04-24T06:02:04;11.03;;;9.73;;
6223;SDS011;3145;42.726;23.342;2023-04-24T06:04:31;17.60;;;10.70;;
6223;SDS011;3145;42.726;23.342;2023-04-24T06:06:58;10.80;;;9.80;;
6223;SDS011;3145;42.726;23.342;2023-04-24T06:09:25;12.90;;;10.67;;
6223;SDS011;3145;42.726;23.342;2023-04-24T06:11:52;14.67;;;11.57;;
6223;SDS011;3145;42.726;23.342;2023-04-24T06:14:20;9.53;;;8.70;;
6223;SDS011;3145;42.726;23.342;2023-04-24T06:16:47;16.90;;;9.23;;
6223;SDS011;3145;42.726;23.342;2023-04-24T06:19:14;10.73;;;9.70;;
6223;SDS011;3145;42.726;23.342;2023-04-24T06:21:40;16.37;;;9.23;;
6223;SDS011;3145;42.726;23.342;2023-04-24T06:24:07;10.27;;;9.00;;
6223;SDS011;3145;42.726;23.342;2023-04-24T06:26:34;9.90;;;8.63;;
6223;SDS011;3145;42.726;23.342;2023-04-24T06:29:00;10.73;;;9.57;;
6223;SDS011;3145;42.726;23.342;2023-04-24T06:31:29;10.70;;;9.60;;
6223;SDS011;3145;42.726;23.342;2023-04-24T06:33:55;13.77;;;9.33;;
6223;SDS011;3145;42.726;23.342;2023-04-24T06:36:22;9.83;;;8.87;;
6223;SDS011;3145;42.726;23.342;2023-04-24T06:38:49;12.30;;;10.00;;
6223;SDS011;3145;42.726;23.342;2023-04-24T06:41:15;10.27;;;9.10;;
6223;SDS011;3145;42.726;23.342;2023-04-24T06:43:42;13.83;;;9.60;;
6223;SDS011;3145;42.726;23.342;2023-04-24T06:46:09;11.83;;;9.77;;
6223;SDS011;3145;42.726;23.342;2023-04-24T06:48:38;10.53;;;8.67;;
6223;SDS011;3145;42.726;23.342;2023-04-24T06:51:05;12.23;;;9.03;;
6223;SDS011;3145;42.726;23.342;2023-04-24T06:53:32;13.73;;;9.97;;
6223;SDS011;3145;42.726;23.342;2023-04-24T06:55:58;11.63;;;9.47;;
6223;SDS011;3145;42.726;23.342;2023-04-24T06:58:25;15.83;;;10.27;;
6223;SDS011;3145;42.726;23.342;2023-04-24T07:00:52;11.90;;;8.60;;
6223;SDS011;3145;42.726;23.342;2023-04-24T07:03:19;11.77;;;10.03;;
6223;SDS011;3145;42.726;23.342;2023-04-24T07:05:47;11.50;;;9.97;;
6223;SDS011;3145;42.726;23.342;2023-04-24T07:08:14;15.53;;;9.70;;
6223;SDS011;3145;42.726;23.342;2023-04-24T07:10:42;9.93;;;9.03;;
6223;SDS011;3145;42.726;23.342;2023-04-24T07:13:09;9.73;;;8.83;;
6223;SDS011;3145;42.726;23.342;2023-04-24T07:15:35;12.07;;;9.77;;
6223;SDS011;3145;42.726;23.342;2023-04-24T07:18:02;10.70;;;9.60;;
6223;SDS011;3145;42.726;23.342;2023-04-24T07:20:29;12.63;;;9.37;;
6223;SDS011;3145;42.726;23.342;2023-04-24T07:22:57;11.63;;;9.33;;
6223;SDS011;3145;42.726;23.342;2023-04-24T07:25:24;9.17;;;8.33;;
6223;SDS011;3145;42.726;23.342;2023-04-24T07:27:50;9.80;;;8.60;;
6223;SDS011;3145;42.726;23.342;2023-04-24T07:30:18;15.27;;;9.20;;
6223;SDS011;3145;42.726;23.342;2023-04-24T07:32:45;13.73;;;9.20;;
6223;SDS011;3145;42.726;23.342;2023-04-24T07:35:11;14.17;;;9.77;;
6223;SDS011;3145;42.726;23.342;2023-04-24T07:37:38;12.20;;;10.03;;
6223;SDS011;3145;42.726;23.342;2023-04-24T07:40:07;10.80;;;9.67;;
6223;SDS011;3145;42.726;23.342;2023-04-24T07:42:34;12.73;;;9.50;;
6223;SDS011;3145;42.726;23.342;2023-04-24T07:45:01;11.60;;;8.67;;
6223;SDS011;3145;42.726;23.342;2023-04-24T07:47:28;11.37;;;8.30;;
6223;SDS011;3145;42.726;23.342;2023-04-24T07:49:54;14.83;;;9.37;;
6223;SDS011;3145;42.726;23.342;2023-04-24T07:52:21;10.40;;;9.17;;
6223;SDS011;3145;42.726;23.342;2023-04-24T07:54:48;7.80;;;7.13;;
6223;SDS011;3145;42.726;23.342;2023-04-24T07:57:19;10.47;;;8.37;;
6223;SDS011;3145;42.726;23.342;2023-04-24T07:59:45;12.37;;;9.57;;
6223;SDS011;3145;42.726;23.342;2023-04-24T08:02:12;16.10;;;9.07;;
6223;SDS011;3145;42.726;23.342;2023-04-24T08:04:39;11.07;;;7.87;;
6223;SDS011;3145;42.726;23.342;2023-04-24T08:07:06;10.33;;;8.67;;
6223;SDS011;3145;42.726;23.342;2023-04-24T08:09:33;10.17;;;8.07;;
6223;SDS011;3145;42.726;23.342;2023-04-24T08:12:00;8.10;;;7.50;;
6223;SDS011;3145;42.726;23.342;2023-04-24T08:14:28;12.73;;;7.90;;
6223;SDS011;3145;42.726;23.342;2023-04-24T08:16:55;8.63;;;7.37;;
6223;SDS011;3145;42.726;23.342;2023-04-24T08:19:24;8.80;;;8.10;;
6223;SDS011;3145;42.726;23.342;2023-04-24T08:21:51;12.47;;;7.90;;
6223;SDS011;3145;42.726;23.342;2023-04-24T08:24:18;7.83;;;7.13;;
6223;SDS011;3145;42.726;23.342;2023-04-24T08:26:44;8.20;;;7.50;;
6223;SDS011;3145;42.726;23.342;2023-04-24T08:29:11;8.77;;;7.27;;
6223;SDS011;3145;42.726;23.342;2023-04-24T08:31:39;11.43;;;8.17;;
6223;SDS011;3145;42.726;23.342;2023-04-24T08:34:06;8.17;;;7.47;;
6223;SDS011;3145;42.726;23.342;2023-04-24T08:36:33;9.37;;;8.17;;
6223;SDS011;3145;42.726;23.342;2023-04-24T08:39:00;8.00;;;7.20;;
6223;SDS011;3145;42.726;23.342;2023-04-24T08:41:27;7.53;;;6.90;;
6223;SDS011;3145;42.726;23.342;2023-04-24T08:43:53;9.97;;;7.27;;
6223;SDS011;3145;42.726;23.342;2023-04-24T08:46:23;9.10;;;8.20;;
6223;SDS011;3145;42.726;23.342;2023-04-24T08:48:52;13.17;;;8.70;;
6223;SDS011;3145;42.726;23.342;2023-04-24T08:51:18;9.97;;;7.23;;
6223;SDS011;3145;42.726;23.342;2023-04-24T08:53:46;11.67;;;8.00;;
6223;SDS011;3145;42.726;23.342;2023-04-24T08:56:13;9.60;;;7.53;;
6223;SDS011;3145;42.726;23.342;2023-04-24T08:58:41;9.53;;;7.67;;
6223;SDS011;3145;42.726;23.342;2023-04-24T09:01:09;7.93;;;6.90;;
6223;SDS011;3145;42.726;23.342;2023-04-24T09:03:36;9.53;;;7.73;;
6223;SDS011;3145;42.726;23.342;2023-04-24T09:06:06;10.77;;;7.43;;
6223;SDS011;3145;42.726;23.342;2023-04-24T09:08:35;11.53;;;8.47;;
6223;SDS011;3145;42.726;23.342;2023-04-24T09:11:02;10.10;;;6.83;;
6223;SDS011;3145;42.726;23.342;2023-04-24T09:13:30;9.00;;;7.53;;
6223;SDS011;3145;42.726;23.342;2023-04-24T09:15:58;10.73;;;7.67;;
6223;SDS011;3145;42.726;23.342;2023-04-24T09:18:25;10.67;;;7.90;;
6223;SDS011;3145;42.726;23.342;2023-04-24T09:20:59;9.83;;;7.33;;
6223;SDS011;3145;42.726;23.342;2023-04-24T09:23:29;9.40;;;7.27;;
6223;SDS011;3145;42.726;23.342;2023-04-24T09:25:57;7.90;;;7.03;;
6223;SDS011;3145;42.726;23.342;2023-04-24T09:28:25;7.87;;;7.10;;
6223;SDS011;3145;42.726;23.342;2023-04-24T09:31:02;9.07;;;7.57;;
6223;SDS011;3145;42.726;23.342;2023-04-24T09:33:30;10.57;;;7.10;;
6223;SDS011;3145;42.726;23.342;2023-04-24T09:35:57;8.17;;;6.80;;
6223;SDS011;3145;42.726;23.342;2023-04-24T09:38:31;7.80;;;7.10;;
6223;SDS011;3145;42.726;23.342;2023-04-24T09:41:00;9.80;;;6.40;;
6223;SDS011;3145;42.726;23.342;2023-04-24T09:43:28;6.73;;;6.20;;
6223;SDS011;3145;42.726;23.342;2023-04-24T09:45:55;7.40;;;6.57;;
6223;SDS011;3145;42.726;23.342;2023-04-24T09:48:29;6.63;;;6.03;;
6223;SDS011;3145;42.726;23.342;2023-04-24T09:50:57;6.73;;;6.13;;
6223;SDS011;3145;42.726;23.342;2023-04-24T09:53:24;9.87;;;6.40;;
6223;SDS011;3145;42.726;23.342;2023-04-24T09:55:53;6.77;;;5.80;;
6223;SDS011;3145;42.726;23.342;2023-04-24T09:58:24;7.60;;;6.13;;
6223;SDS011;3145;42.726;23.342;2023-04-24T10:00:53;6.65;;;6.03;;
6223;SDS011;3145;42.726;23.342;2023-04-24T10:03:20;8.27;;;5.50;;
6223;SDS011;3145;42.726;23.342;2023-04-24T10:05:51;8.23;;;5.70;;
6223;SDS011;3145;42.726;23.342;2023-04-24T10:08:17;7.47;;;6.80;;
6223;SDS011;3145;42.726;23.342;2023-04-24T10:10:45;6.17;;;5.57;;
6223;SDS011;3145;42.726;23.342;2023-04-24T10:13:14;7.30;;;5.80;;
6223;SDS011;3145;42.726;23.342;2023-04-24T10:15:41;8.60;;;5.83;;
6223;SDS011;3145;42.726;23.342;2023-04-24T10:18:08;7.47;;;5.87;;
6223;SDS011;3145;42.726;23.342;2023-04-24T10:20:36;11.13;;;5.63;;
6223;SDS011;3145;42.726;23.342;2023-04-24T10:23:04;7.27;;;5.80;;
6223;SDS011;3145;42.726;23.342;2023-04-24T10:25:32;10.50;;;5.83;;
6223;SDS011;3145;42.726;23.342;2023-04-24T10:28:00;7.07;;;5.63;;
6223;SDS011;3145;42.726;23.342;2023-04-24T10:30:29;7.17;;;6.47;;
6223;SDS011;3145;42.726;23.342;2023-04-24T10:33:00;6.33;;;5.80;;
6223;SDS011;3145;42.726;23.342;2023-04-24T10:35:27;8.67;;;6.03;;
6223;SDS011;3145;42.726;23.342;2023-04-24T10:37:57;7.03;;;6.33;;
6223;SDS011;3145;42.726;23.342;2023-04-24T10:40:29;10.30;;;6.93;;
6223;SDS011;3145;42.726;23.342;2023-04-24T10:42:57;6.30;;;5.67;;
6223;SDS011;3145;42.726;23.342;2023-04-24T10:45:24;9.40;;;5.27;;
6223;SDS011;3145;42.726;23.342;2023-04-24T10:47:53;7.00;;;5.50;;
6223;SDS011;3145;42.726;23.342;2023-04-24T10:50:23;7.00;;;6.32;;
6223;SDS011;3145;42.726;23.342;2023-04-24T10:52:52;6.50;;;5.83;;
6223;SDS011;3145;42.726;23.342;2023-04-24T10:55:39;6.70;;;6.20;;
6223;SDS011;3145;42.726;23.342;2023-04-24T10:58:07;5.60;;;5.10;;
6223;SDS011;3145;42.726;23.342;2023-04-24T11:00:35;6.37;;;5.40;;
6223;SDS011;3145;42.726;23.342;2023-04-24T11:03:05;7.68;;;5.80;;
6223;SDS011;3145;42.726;23.342;2023-04-24T11:05:52;6.27;;;5.77;;
6223;SDS011;3145;42.726;23.342;2023-04-24T11:08:22;6.73;;;6.07;;
6223;SDS011;3145;42.726;23.342;2023-04-24T11:10:54;7.00;;;6.00;;
6223;SDS011;3145;42.726;23.342;2023-04-24T11:13:27;12.83;;;6.07;;
6223;SDS011;3145;42.726;23.342;2023-04-24T11:16:15;7.20;;;5.83;;
6223;SDS011;3145;42.726;23.342;2023-04-24T11:18:51;8.47;;;6.23;;
6223;SDS011;3145;42.726;23.342;2023-04-24T11:21:19;6.10;;;5.60;;
6223;SDS011;3145;42.726;23.342;2023-04-24T11:23:48;6.97;;;6.37;;
6223;SDS011;3145;42.726;23.342;2023-04-24T11:26:17;8.27;;;5.73;;
6223;SDS011;3145;42.726;23.342;2023-04-24T11:28:48;41.43;;;7.37;;
6223;SDS011;3145;42.726;23.342;2023-04-24T11:34:08;7.83;;;7.07;;
6223;SDS011;3145;42.726;23.342;2023-04-24T11:36:37;12.73;;;7.03;;
6223;SDS011;3145;42.726;23.342;2023-04-24T11:39:04;11.27;;;6.70;;
6223;SDS011;3145;42.726;23.342;2023-04-24T11:41:31;8.60;;;6.47;;
6223;SDS011;3145;42.726;23.342;2023-04-24T11:43:59;6.70;;;6.17;;
6223;SDS011;3145;42.726;23.342;2023-04-24T11:46:27;7.03;;;6.43;;
6223;SDS011;3145;42.726;23.342;2023-04-24T11:48:55;8.57;;;7.03;;
6223;SDS011;3145;42.726;23.342;2023-04-24T11:51:23;5.70;;;4.80;;
6223;SDS011;3145;42.726;23.342;2023-04-24T11:53:51;6.27;;;5.87;;
6223;SDS011;3145;42.726;23.342;2023-04-24T11:56:19;5.63;;;5.30;;
6223;SDS011;3145;42.726;23.342;2023-04-24T11:58:45;6.80;;;5.00;;
6223;SDS011;3145;42.726;23.342;2023-04-24T12:01:13;7.27;;;5.50;;
6223;SDS011;3145;42.726;23.342;2023-04-24T12:03:40;5.67;;;5.20;;
6223;SDS011;3145;42.726;23.342;2023-04-24T12:06:10;6.17;;;5.53;;
6223;SDS011;3145;42.726;23.342;2023-04-24T12:08:39;6.90;;;5.63;;
6223;SDS011;3145;42.726;23.342;2023-04-24T12:11:06;5.83;;;5.40;;
6223;SDS011;3145;42.726;23.342;2023-04-24T12:13:33;8.13;;;5.03;;
6223;SDS011;3145;42.726;23.342;2023-04-24T12:16:02;4.73;;;4.40;;
6223;SDS011;3145;42.726;23.342;2023-04-24T12:18:30;5.30;;;4.57;;
6223;SDS011;3145;42.726;23.342;2023-04-24T12:23:43;5.00;;;4.60;;
6223;SDS011;3145;42.726;23.342;2023-04-24T12:26:11;4.63;;;4.23;;
6223;SDS011;3145;42.726;23.342;2023-04-24T12:28:38;10.60;;;4.60;;
6223;SDS011;3145;42.726;23.342;2023-04-24T12:31:06;6.00;;;5.43;;
6223;SDS011;3145;42.726;23.342;2023-04-24T12:33:33;6.40;;;4.93;;
6223;SDS011;3145;42.726;23.342;2023-04-24T12:36:01;4.93;;;4.53;;
6223;SDS011;3145;42.726;23.342;2023-04-24T12:38:28;6.43;;;5.53;;
6223;SDS011;3145;42.726;23.342;2023-04-24T12:41:03;6.07;;;5.53;;
6223;SDS011;3145;42.726;23.342;2023-04-24T12:43:32;6.03;;;5.20;;
6223;SDS011;3145;42.726;23.342;2023-04-24T12:45:59;6.03;;;5.43;;
6223;SDS011;3145;42.726;23.342;2023-04-24T12:48:26;6.53;;;5.27;;
6223;SDS011;3145;42.726;23.342;2023-04-24T12:50:52;5.60;;;5.10;;
6223;SDS011;3145;42.726;23.342;2023-04-24T12:53:20;5.47;;;4.97;;
6223;SDS011;3145;42.726;23.342;2023-04-24T12:55:47;4.77;;;4.47;;
6223;SDS011;3145;42.726;23.342;2023-04-24T12:58:19;7.37;;;5.63;;
6223;SDS011;3145;42.726;23.342;2023-04-24T13:00:46;5.83;;;4.43;;
6223;SDS011;3145;42.726;23.342;2023-04-24T13:03:13;5.87;;;4.40;;
6223;SDS011;3145;42.726;23.342;2023-04-24T13:05:42;4.57;;;4.17;;
6223;SDS011;3145;42.726;23.342;2023-04-24T13:08:09;4.70;;;4.30;;
6223;SDS011;3145;42.726;23.342;2023-04-24T13:10:37;4.43;;;4.07;;
6223;SDS011;3145;42.726;23.342;2023-04-24T13:13:05;5.00;;;4.50;;
6223;SDS011;3145;42.726;23.342;2023-04-24T13:15:33;6.87;;;4.70;;
6223;SDS011;3145;42.726;23.342;2023-04-24T13:18:00;7.20;;;5.20;;
6223;SDS011;3145;42.726;23.342;2023-04-24T13:20:27;5.90;;;5.27;;
6223;SDS011;3145;42.726;23.342;2023-04-24T13:22:54;10.03;;;5.80;;
6223;SDS011;3145;42.726;23.342;2023-04-24T13:25:20;6.07;;;5.50;;
6223;SDS011;3145;42.726;23.342;2023-04-24T13:27:48;6.00;;;5.50;;
6223;SDS011;3145;42.726;23.342;2023-04-24T13:30:15;5.40;;;5.00;;
6223;SDS011;3145;42.726;23.342;2023-04-24T13:32:44;7.83;;;4.70;;
6223;SDS011;3145;42.726;23.342;2023-04-24T13:35:10;7.03;;;6.23;;
6223;SDS011;3145;42.726;23.342;2023-04-24T13:37:37;6.10;;;5.23;;
6223;SDS011;3145;42.726;23.342;2023-04-24T13:40:04;10.23;;;5.40;;
6223;SDS011;3145;42.726;23.342;2023-04-24T13:42:32;6.10;;;4.20;;
6223;SDS011;3145;42.726;23.342;2023-04-24T13:44:59;6.47;;;5.33;;
6223;SDS011;3145;42.726;23.342;2023-04-24T13:47:25;7.20;;;5.17;;
6223;SDS011;3145;42.726;23.342;2023-04-24T13:49:54;7.40;;;6.70;;
6223;SDS011;3145;42.726;23.342;2023-04-24T13:52:20;6.27;;;5.67;;
6223;SDS011;3145;42.726;23.342;2023-04-24T13:54:47;6.10;;;5.37;;
6223;SDS011;3145;42.726;23.342;2023-04-24T13:57:14;11.10;;;4.97;;
6223;SDS011;3145;42.726;23.342;2023-04-24T13:59:42;4.63;;;4.33;;
6223;SDS011;3145;42.726;23.342;2023-04-24T14:02:08;5.07;;;4.50;;
6223;SDS011;3145;42.726;23.342;2023-04-24T14:04:35;5.83;;;5.33;;
6223;SDS011;3145;42.726;23.342;2023-04-24T14:07:03;3.67;;;3.47;;
6223;SDS011;3145;42.726;23.342;2023-04-24T14:09:30;5.10;;;4.53;;
6223;SDS011;3145;42.726;23.342;2023-04-24T14:11:59;6.23;;;5.67;;
6223;SDS011;3145;42.726;23.342;2023-04-24T14:14:27;5.30;;;4.80;;
6223;SDS011;3145;42.726;23.342;2023-04-24T14:16:54;5.53;;;4.90;;
6223;SDS011;3145;42.726;23.342;2023-04-24T14:19:21;4.67;;;4.37;;
6223;SDS011;3145;42.726;23.342;2023-04-24T14:21:48;5.37;;;4.90;;
6223;SDS011;3145;42.726;23.342;2023-04-24T14:24:17;5.30;;;4.80;;
6223;SDS011;3145;42.726;23.342;2023-04-24T14:26:45;5.30;;;4.70;;
6223;SDS011;3145;42.726;23.342;2023-04-24T14:29:11;7.77;;;4.90;;
6223;SDS011;3145;42.726;23.342;2023-04-24T14:31:38;4.60;;;4.20;;
6223;SDS011;3145;42.726;23.342;2023-04-24T14:34:05;6.33;;;5.73;;
6223;SDS011;3145;42.726;23.342;2023-04-24T14:36:32;7.57;;;5.43;;
6223;SDS011;3145;42.726;23.342;2023-04-24T14:38:59;7.03;;;4.37;;
6223;SDS011;3145;42.726;23.342;2023-04-24T14:41:29;5.30;;;4.80;;
6223;SDS011;3145;42.726;23.342;2023-04-24T14:43:56;4.73;;;4.10;;
6223;SDS011;3145;42.726;23.342;2023-04-24T14:46:23;5.20;;;4.73;;
6223;SDS011;3145;42.726;23.342;2023-04-24T14:48:50;4.97;;;4.67;;
6223;SDS011;3145;42.726;23.342;2023-04-24T14:51:17;10.60;;;6.23;;
6223;SDS011;3145;42.726;23.342;2023-04-24T14:53:43;8.40;;;5.77;;
6223;SDS011;3145;42.726;23.342;2023-04-24T14:56:11;6.33;;;5.73;;
6223;SDS011;3145;42.726;23.342;2023-04-24T14:58:40;6.57;;;5.10;;